sensor_id;sensor_type;location;lat;lon;timestamp;P1;durP1;ratioP1;P2;durP2;ratioP2
32347;SDS011;18821;44.800;10.326;2022-12-18T00:01:57;68.25;;;39.60;;
32347;SDS011;18821;44.800;10.326;2022-12-18T00:04:27;71.75;;;38.35;;
32347;SDS011;18821;44.800;10.326;2022-12-18T00:06:52;69.53;;;38.35;;
32347;SDS011;18821;44.800;10.326;2022-12-18T00:09:19;61.85;;;36.58;;
32347;SDS011;18821;44.800;10.326;2022-12-18T00:11:46;70.45;;;38.40;;
32347;SDS011;18821;44.800;10.326;2022-12-18T00:14:12;64.85;;;35.92;;
32347;SDS011;18821;44.800;10.326;2022-12-18T00:16:39;68.80;;;35.75;;
32347;SDS011;18821;44.800;10.326;2022-12-18T00:19:05;68.43;;;38.30;;
32347;SDS011;18821;44.800;10.326;2022-12-18T00:21:32;75.45;;;41.05;;
32347;SDS011;18821;44.800;10.326;2022-12-18T00:23:59;75.22;;;41.00;;
32347;SDS011;18821;44.800;10.326;2022-12-18T00:26:27;81.90;;;43.03;;
32347;SDS011;18821;44.800;10.326;2022-12-18T00:28:58;77.60;;;42.30;;
32347;SDS011;18821;44.800;10.326;2022-12-18T00:31:26;72.63;;;40.00;;
32347;SDS011;18821;44.800;10.326;2022-12-18T00:33:55;78.95;;;41.88;;
32347;SDS011;18821;44.800;10.326;2022-12-18T00:36:23;82.53;;;43.00;;
32347;SDS011;18821;44.800;10.326;2022-12-18T00:38:55;79.15;;;42.05;;
32347;SDS011;18821;44.800;10.326;2022-12-18T00:41:22;83.03;;;42.40;;
32347;SDS011;18821;44.800;10.326;2022-12-18T00:44:08;82.15;;;41.78;;
32347;SDS011;18821;44.800;10.326;2022-12-18T00:46:36;84.55;;;41.97;;
32347;SDS011;18821;44.800;10.326;2022-12-18T00:49:02;86.82;;;43.20;;
32347;SDS011;18821;44.800;10.326;2022-12-18T00:51:28;82.95;;;42.42;;
32347;SDS011;18821;44.800;10.326;2022-12-18T00:53:54;85.57;;;43.17;;
32347;SDS011;18821;44.800;10.326;2022-12-18T00:56:21;76.70;;;41.70;;
32347;SDS011;18821;44.800;10.326;2022-12-18T00:58:47;81.78;;;44.60;;
32347;SDS011;18821;44.800;10.326;2022-12-18T01:01:13;80.25;;;43.75;;
32347;SDS011;18821;44.800;10.326;2022-12-18T01:03:39;84.78;;;41.22;;
32347;SDS011;18821;44.800;10.326;2022-12-18T01:06:07;82.57;;;43.78;;
32347;SDS011;18821;44.800;10.326;2022-12-18T01:08:34;88.30;;;43.38;;
32347;SDS011;18821;44.800;10.326;2022-12-18T01:11:00;82.38;;;42.67;;
32347;SDS011;18821;44.800;10.326;2022-12-18T01:13:32;80.47;;;44.05;;
32347;SDS011;18821;44.800;10.326;2022-12-18T01:15:58;79.50;;;43.08;;
32347;SDS011;18821;44.800;10.326;2022-12-18T01:18:24;86.10;;;41.15;;
32347;SDS011;18821;44.800;10.326;2022-12-18T01:20:50;73.30;;;40.08;;
32347;SDS011;18821;44.800;10.326;2022-12-18T01:23:15;75.32;;;40.95;;
32347;SDS011;18821;44.800;10.326;2022-12-18T01:25:41;73.60;;;41.50;;
32347;SDS011;18821;44.800;10.326;2022-12-18T01:28:08;75.88;;;43.22;;
32347;SDS011;18821;44.800;10.326;2022-12-18T01:30:34;81.43;;;44.13;;
32347;SDS011;18821;44.800;10.326;2022-12-18T01:33:00;77.40;;;41.28;;
32347;SDS011;18821;44.800;10.326;2022-12-18T01:35:26;73.55;;;40.92;;
32347;SDS011;18821;44.800;10.326;2022-12-18T01:37:55;74.93;;;41.67;;
32347;SDS011;18821;44.800;10.326;2022-12-18T01:40:21;71.50;;;40.38;;
32347;SDS011;18821;44.800;10.326;2022-12-18T01:42:51;71.60;;;41.05;;
32347;SDS011;18821;44.800;10.326;2022-12-18T01:47:45;74.35;;;38.65;;
32347;SDS011;18821;44.800;10.326;2022-12-18T01:50:19;78.60;;;38.97;;
32347;SDS011;18821;44.800;10.326;2022-12-18T01:53:05;80.95;;;41.90;;
32347;SDS011;18821;44.800;10.326;2022-12-18T01:55:45;78.13;;;41.70;;
32347;SDS011;18821;44.800;10.326;2022-12-18T01:58:13;81.43;;;41.92;;
32347;SDS011;18821;44.800;10.326;2022-12-18T02:00:40;79.45;;;39.50;;
32347;SDS011;18821;44.800;10.326;2022-12-18T02:03:06;84.80;;;42.30;;
32347;SDS011;18821;44.800;10.326;2022-12-18T02:16:12;84.72;;;40.95;;
32347;SDS011;18821;44.800;10.326;2022-12-18T02:18:55;74.45;;;39.65;;
32347;SDS011;18821;44.800;10.326;2022-12-18T02:21:40;78.50;;;41.55;;
32347;SDS011;18821;44.800;10.326;2022-12-18T02:24:28;80.55;;;40.20;;
32347;SDS011;18821;44.800;10.326;2022-12-18T02:27:03;80.68;;;42.30;;
32347;SDS011;18821;44.800;10.326;2022-12-18T02:29:38;89.60;;;43.30;;
32347;SDS011;18821;44.800;10.326;2022-12-18T02:32:11;91.28;;;42.28;;
32347;SDS011;18821;44.800;10.326;2022-12-18T02:34:51;92.63;;;45.53;;
32347;SDS011;18821;44.800;10.326;2022-12-18T02:37:22;84.18;;;43.10;;
32347;SDS011;18821;44.800;10.326;2022-12-18T02:39:51;84.97;;;41.70;;
32347;SDS011;18821;44.800;10.326;2022-12-18T02:42:20;86.07;;;43.95;;
32347;SDS011;18821;44.800;10.326;2022-12-18T02:44:48;91.25;;;45.08;;
32347;SDS011;18821;44.800;10.326;2022-12-18T02:47:20;84.45;;;43.20;;
32347;SDS011;18821;44.800;10.326;2022-12-18T02:50:00;86.15;;;45.92;;
32347;SDS011;18821;44.800;10.326;2022-12-18T02:55:56;90.22;;;45.53;;
32347;SDS011;18821;44.800;10.326;2022-12-18T03:01:01;83.85;;;43.08;;
32347;SDS011;18821;44.800;10.326;2022-12-18T03:03:39;87.63;;;45.22;;
32347;SDS011;18821;44.800;10.326;2022-12-18T03:06:16;90.28;;;47.55;;
32347;SDS011;18821;44.800;10.326;2022-12-18T03:09:07;97.10;;;47.42;;
32347;SDS011;18821;44.800;10.326;2022-12-18T03:11:39;91.07;;;46.65;;
32347;SDS011;18821;44.800;10.326;2022-12-18T03:14:28;90.00;;;41.30;;
32347;SDS011;18821;44.800;10.326;2022-12-18T03:16:57;83.43;;;43.05;;
32347;SDS011;18821;44.800;10.326;2022-12-18T03:19:28;61.22;;;29.30;;
32347;SDS011;18821;44.800;10.326;2022-12-18T03:22:00;69.22;;;36.33;;
32347;SDS011;18821;44.800;10.326;2022-12-18T03:24:39;56.40;;;27.58;;
32347;SDS011;18821;44.800;10.326;2022-12-18T03:27:11;75.28;;;32.90;;
32347;SDS011;18821;44.800;10.326;2022-12-18T03:29:43;64.28;;;36.35;;
32347;SDS011;18821;44.800;10.326;2022-12-18T03:32:20;108.45;;;35.70;;
32347;SDS011;18821;44.800;10.326;2022-12-18T03:34:52;74.55;;;34.25;;
32347;SDS011;18821;44.800;10.326;2022-12-18T03:37:22;90.90;;;38.55;;
32347;SDS011;18821;44.800;10.326;2022-12-18T03:39:48;87.50;;;34.72;;
32347;SDS011;18821;44.800;10.326;2022-12-18T03:42:24;79.40;;;38.88;;
32347;SDS011;18821;44.800;10.326;2022-12-18T03:45:09;74.50;;;39.00;;
32347;SDS011;18821;44.800;10.326;2022-12-18T03:47:40;82.32;;;40.60;;
32347;SDS011;18821;44.800;10.326;2022-12-18T03:50:45;82.70;;;37.08;;
32347;SDS011;18821;44.800;10.326;2022-12-18T03:55:59;79.65;;;39.83;;
32347;SDS011;18821;44.800;10.326;2022-12-18T03:58:33;75.13;;;40.92;;
32347;SDS011;18821;44.800;10.326;2022-12-18T04:01:24;77.95;;;38.88;;
32347;SDS011;18821;44.800;10.326;2022-12-18T04:04:03;87.43;;;38.88;;
32347;SDS011;18821;44.800;10.326;2022-12-18T04:06:34;83.63;;;39.22;;
32347;SDS011;18821;44.800;10.326;2022-12-18T04:09:01;74.22;;;39.78;;
32347;SDS011;18821;44.800;10.326;2022-12-18T04:11:31;80.22;;;37.22;;
32347;SDS011;18821;44.800;10.326;2022-12-18T04:13:58;81.82;;;39.47;;
32347;SDS011;18821;44.800;10.326;2022-12-18T04:16:25;86.95;;;40.38;;
32347;SDS011;18821;44.800;10.326;2022-12-18T04:18:54;78.13;;;41.13;;
32347;SDS011;18821;44.800;10.326;2022-12-18T04:21:23;77.05;;;40.63;;
32347;SDS011;18821;44.800;10.326;2022-12-18T04:23:51;80.13;;;42.13;;
32347;SDS011;18821;44.800;10.326;2022-12-18T04:26:19;83.85;;;43.25;;
32347;SDS011;18821;44.800;10.326;2022-12-18T04:29:05;79.47;;;41.97;;
32347;SDS011;18821;44.800;10.326;2022-12-18T04:31:32;87.50;;;44.67;;
32347;SDS011;18821;44.800;10.326;2022-12-18T04:33:58;79.05;;;41.33;;
32347;SDS011;18821;44.800;10.326;2022-12-18T04:36:25;72.82;;;41.00;;
32347;SDS011;18821;44.800;10.326;2022-12-18T04:38:52;74.13;;;39.95;;
32347;SDS011;18821;44.800;10.326;2022-12-18T04:41:18;76.40;;;39.63;;
32347;SDS011;18821;44.800;10.326;2022-12-18T04:43:46;68.25;;;37.45;;
32347;SDS011;18821;44.800;10.326;2022-12-18T04:46:12;69.10;;;37.58;;
32347;SDS011;18821;44.800;10.326;2022-12-18T04:48:39;66.70;;;34.80;;
32347;SDS011;18821;44.800;10.326;2022-12-18T04:51:06;64.20;;;35.70;;
32347;SDS011;18821;44.800;10.326;2022-12-18T04:53:32;71.00;;;36.80;;
32347;SDS011;18821;44.800;10.326;2022-12-18T04:56:16;69.18;;;38.42;;
32347;SDS011;18821;44.800;10.326;2022-12-18T04:58:43;68.63;;;35.92;;
32347;SDS011;18821;44.800;10.326;2022-12-18T05:01:11;100.60;;;36.53;;
32347;SDS011;18821;44.800;10.326;2022-12-18T05:03:38;95.65;;;37.22;;
32347;SDS011;18821;44.800;10.326;2022-12-18T05:06:04;77.35;;;38.38;;
32347;SDS011;18821;44.800;10.326;2022-12-18T05:08:31;99.90;;;37.83;;
32347;SDS011;18821;44.800;10.326;2022-12-18T05:11:01;105.40;;;41.45;;
32347;SDS011;18821;44.800;10.326;2022-12-18T05:13:30;77.57;;;40.60;;
32347;SDS011;18821;44.800;10.326;2022-12-18T05:15:57;81.57;;;40.72;;
32347;SDS011;18821;44.800;10.326;2022-12-18T05:18:23;86.05;;;42.75;;
32347;SDS011;18821;44.800;10.326;2022-12-18T05:20:50;86.05;;;43.22;;
32347;SDS011;18821;44.800;10.326;2022-12-18T05:23:16;136.38;;;43.60;;
32347;SDS011;18821;44.800;10.326;2022-12-18T05:25:46;86.20;;;41.80;;
32347;SDS011;18821;44.800;10.326;2022-12-18T05:28:16;176.40;;;42.53;;
32347;SDS011;18821;44.800;10.326;2022-12-18T05:30:42;93.25;;;39.90;;
32347;SDS011;18821;44.800;10.326;2022-12-18T05:33:12;104.72;;;42.08;;
32347;SDS011;18821;44.800;10.326;2022-12-18T05:35:38;92.80;;;41.40;;
32347;SDS011;18821;44.800;10.326;2022-12-18T05:38:04;261.42;;;45.72;;
32347;SDS011;18821;44.800;10.326;2022-12-18T05:40:30;112.18;;;40.15;;
32347;SDS011;18821;44.800;10.326;2022-12-18T05:42:56;144.20;;;40.38;;
32347;SDS011;18821;44.800;10.326;2022-12-18T05:45:22;293.95;;;44.50;;
32347;SDS011;18821;44.800;10.326;2022-12-18T05:47:48;184.10;;;39.67;;
32347;SDS011;18821;44.800;10.326;2022-12-18T05:50:14;398.33;;;49.38;;
32347;SDS011;18821;44.800;10.326;2022-12-18T05:52:39;195.80;;;38.15;;
32347;SDS011;18821;44.800;10.326;2022-12-18T05:55:05;321.73;;;46.67;;
32347;SDS011;18821;44.800;10.326;2022-12-18T05:57:32;260.13;;;40.58;;
32347;SDS011;18821;44.800;10.326;2022-12-18T05:59:58;100.57;;;29.88;;
32347;SDS011;18821;44.800;10.326;2022-12-18T06:02:23;303.20;;;44.60;;
32347;SDS011;18821;44.800;10.326;2022-12-18T06:04:49;207.18;;;47.35;;
32347;SDS011;18821;44.800;10.326;2022-12-18T06:07:15;155.27;;;47.33;;
32347;SDS011;18821;44.800;10.326;2022-12-18T06:09:41;154.18;;;49.00;;
32347;SDS011;18821;44.800;10.326;2022-12-18T06:12:07;332.10;;;58.63;;
32347;SDS011;18821;44.800;10.326;2022-12-18T06:14:33;123.93;;;48.88;;
32347;SDS011;18821;44.800;10.326;2022-12-18T06:16:59;149.45;;;49.97;;
32347;SDS011;18821;44.800;10.326;2022-12-18T06:19:24;155.45;;;52.03;;
32347;SDS011;18821;44.800;10.326;2022-12-18T06:21:50;366.88;;;58.33;;
32347;SDS011;18821;44.800;10.326;2022-12-18T06:24:16;129.98;;;49.75;;
32347;SDS011;18821;44.800;10.326;2022-12-18T06:26:42;140.45;;;51.65;;
32347;SDS011;18821;44.800;10.326;2022-12-18T06:29:08;138.45;;;47.53;;
32347;SDS011;18821;44.800;10.326;2022-12-18T06:31:34;306.95;;;53.97;;
32347;SDS011;18821;44.800;10.326;2022-12-18T06:34:04;160.07;;;46.83;;
32347;SDS011;18821;44.800;10.326;2022-12-18T06:36:30;128.73;;;40.20;;
32347;SDS011;18821;44.800;10.326;2022-12-18T06:38:56;237.50;;;48.63;;
32347;SDS011;18821;44.800;10.326;2022-12-18T06:41:22;196.82;;;47.92;;
32347;SDS011;18821;44.800;10.326;2022-12-18T06:43:48;226.38;;;52.85;;
32347;SDS011;18821;44.800;10.326;2022-12-18T06:46:14;166.80;;;49.92;;
32347;SDS011;18821;44.800;10.326;2022-12-18T06:48:40;212.07;;;42.33;;
32347;SDS011;18821;44.800;10.326;2022-12-18T06:51:06;122.47;;;43.85;;
32347;SDS011;18821;44.800;10.326;2022-12-18T06:53:32;109.57;;;44.10;;
32347;SDS011;18821;44.800;10.326;2022-12-18T06:56:02;135.48;;;41.42;;
32347;SDS011;18821;44.800;10.326;2022-12-18T06:58:29;116.32;;;42.45;;
32347;SDS011;18821;44.800;10.326;2022-12-18T07:00:59;116.40;;;46.75;;
32347;SDS011;18821;44.800;10.326;2022-12-18T07:03:26;139.45;;;48.78;;
32347;SDS011;18821;44.800;10.326;2022-12-18T07:05:52;143.10;;;48.65;;
32347;SDS011;18821;44.800;10.326;2022-12-18T07:08:18;176.73;;;50.60;;
32347;SDS011;18821;44.800;10.326;2022-12-18T07:10:44;166.63;;;46.88;;
32347;SDS011;18821;44.800;10.326;2022-12-18T07:13:10;117.45;;;44.25;;
32347;SDS011;18821;44.800;10.326;2022-12-18T07:15:36;111.07;;;39.33;;
32347;SDS011;18821;44.800;10.326;2022-12-18T07:18:02;197.68;;;50.58;;
32347;SDS011;18821;44.800;10.326;2022-12-18T07:20:28;147.57;;;49.25;;
32347;SDS011;18821;44.800;10.326;2022-12-18T07:22:54;157.40;;;47.83;;
32347;SDS011;18821;44.800;10.326;2022-12-18T07:25:20;174.60;;;47.22;;
32347;SDS011;18821;44.800;10.326;2022-12-18T07:27:46;141.18;;;42.20;;
32347;SDS011;18821;44.800;10.326;2022-12-18T07:30:12;114.00;;;42.25;;
32347;SDS011;18821;44.800;10.326;2022-12-18T07:32:38;176.38;;;48.58;;
32347;SDS011;18821;44.800;10.326;2022-12-18T07:35:04;191.90;;;52.63;;
32347;SDS011;18821;44.800;10.326;2022-12-18T07:37:30;144.70;;;51.40;;
32347;SDS011;18821;44.800;10.326;2022-12-18T07:39:56;142.38;;;43.80;;
32347;SDS011;18821;44.800;10.326;2022-12-18T07:42:22;132.65;;;47.30;;
32347;SDS011;18821;44.800;10.326;2022-12-18T07:45:00;231.13;;;51.33;;
32347;SDS011;18821;44.800;10.326;2022-12-18T07:47:27;139.82;;;42.38;;
32347;SDS011;18821;44.800;10.326;2022-12-18T07:49:53;128.02;;;49.72;;
32347;SDS011;18821;44.800;10.326;2022-12-18T07:52:20;145.23;;;49.70;;
32347;SDS011;18821;44.800;10.326;2022-12-18T07:54:46;209.15;;;53.90;;
32347;SDS011;18821;44.800;10.326;2022-12-18T07:57:14;136.73;;;46.38;;
32347;SDS011;18821;44.800;10.326;2022-12-18T07:59:43;148.27;;;51.88;;
32347;SDS011;18821;44.800;10.326;2022-12-18T08:02:09;171.65;;;48.25;;
32347;SDS011;18821;44.800;10.326;2022-12-18T08:04:35;166.32;;;49.55;;
32347;SDS011;18821;44.800;10.326;2022-12-18T08:07:01;230.88;;;50.65;;
32347;SDS011;18821;44.800;10.326;2022-12-18T08:09:27;146.65;;;45.97;;
32347;SDS011;18821;44.800;10.326;2022-12-18T08:11:53;116.50;;;43.08;;
32347;SDS011;18821;44.800;10.326;2022-12-18T08:14:19;121.15;;;39.22;;
32347;SDS011;18821;44.800;10.326;2022-12-18T08:16:45;95.65;;;34.58;;
32347;SDS011;18821;44.800;10.326;2022-12-18T08:19:11;127.10;;;45.67;;
32347;SDS011;18821;44.800;10.326;2022-12-18T08:21:41;125.00;;;44.80;;
32347;SDS011;18821;44.800;10.326;2022-12-18T08:24:08;129.77;;;45.83;;
32347;SDS011;18821;44.800;10.326;2022-12-18T08:26:35;134.48;;;44.85;;
32347;SDS011;18821;44.800;10.326;2022-12-18T08:29:01;114.03;;;37.42;;
32347;SDS011;18821;44.800;10.326;2022-12-18T08:31:28;129.32;;;43.22;;
32347;SDS011;18821;44.800;10.326;2022-12-18T08:33:56;139.55;;;48.60;;
32347;SDS011;18821;44.800;10.326;2022-12-18T08:36:22;169.63;;;50.42;;
32347;SDS011;18821;44.800;10.326;2022-12-18T08:38:49;151.77;;;48.50;;
32347;SDS011;18821;44.800;10.326;2022-12-18T08:41:15;137.02;;;47.33;;
32347;SDS011;18821;44.800;10.326;2022-12-18T08:43:42;159.07;;;48.08;;
32347;SDS011;18821;44.800;10.326;2022-12-18T08:46:31;140.82;;;43.65;;
32347;SDS011;18821;44.800;10.326;2022-12-18T08:49:02;129.57;;;43.63;;
32347;SDS011;18821;44.800;10.326;2022-12-18T08:51:29;116.35;;;39.75;;
32347;SDS011;18821;44.800;10.326;2022-12-18T08:53:55;111.03;;;42.88;;
32347;SDS011;18821;44.800;10.326;2022-12-18T08:56:21;98.05;;;39.47;;
32347;SDS011;18821;44.800;10.326;2022-12-18T08:58:50;116.03;;;41.00;;
32347;SDS011;18821;44.800;10.326;2022-12-18T09:01:17;107.72;;;37.85;;
32347;SDS011;18821;44.800;10.326;2022-12-18T09:03:43;105.13;;;38.05;;
32347;SDS011;18821;44.800;10.326;2022-12-18T09:06:16;97.57;;;39.05;;
32347;SDS011;18821;44.800;10.326;2022-12-18T09:08:43;88.88;;;33.47;;
32347;SDS011;18821;44.800;10.326;2022-12-18T09:11:14;121.47;;;39.90;;
32347;SDS011;18821;44.800;10.326;2022-12-18T09:13:44;96.82;;;38.65;;
32347;SDS011;18821;44.800;10.326;2022-12-18T09:16:10;88.25;;;34.53;;
32347;SDS011;18821;44.800;10.326;2022-12-18T09:18:38;100.47;;;40.00;;
32347;SDS011;18821;44.800;10.326;2022-12-18T09:21:07;93.25;;;37.50;;
32347;SDS011;18821;44.800;10.326;2022-12-18T09:23:38;99.13;;;38.13;;
32347;SDS011;18821;44.800;10.326;2022-12-18T09:26:04;106.80;;;40.40;;
32347;SDS011;18821;44.800;10.326;2022-12-18T09:28:30;90.05;;;37.33;;
32347;SDS011;18821;44.800;10.326;2022-12-18T09:30:56;80.72;;;34.75;;
32347;SDS011;18821;44.800;10.326;2022-12-18T09:33:22;88.85;;;37.10;;
32347;SDS011;18821;44.800;10.326;2022-12-18T09:35:48;86.43;;;37.92;;
32347;SDS011;18821;44.800;10.326;2022-12-18T09:38:15;86.97;;;37.17;;
32347;SDS011;18821;44.800;10.326;2022-12-18T09:40:44;87.47;;;36.13;;
32347;SDS011;18821;44.800;10.326;2022-12-18T09:43:14;87.72;;;36.05;;
32347;SDS011;18821;44.800;10.326;2022-12-18T09:46:14;82.30;;;34.63;;
32347;SDS011;18821;44.800;10.326;2022-12-18T09:48:46;78.05;;;32.92;;
32347;SDS011;18821;44.800;10.326;2022-12-18T09:51:17;74.93;;;34.83;;
32347;SDS011;18821;44.800;10.326;2022-12-18T09:54:11;75.55;;;33.65;;
32347;SDS011;18821;44.800;10.326;2022-12-18T09:56:42;71.25;;;31.08;;
32347;SDS011;18821;44.800;10.326;2022-12-18T09:59:31;78.55;;;34.95;;
32347;SDS011;18821;44.800;10.326;2022-12-18T10:01:57;69.28;;;31.23;;
32347;SDS011;18821;44.800;10.326;2022-12-18T10:04:23;65.80;;;30.65;;
32347;SDS011;18821;44.800;10.326;2022-12-18T10:12:01;59.45;;;28.65;;
32347;SDS011;18821;44.800;10.326;2022-12-18T10:19:49;68.43;;;27.92;;
32347;SDS011;18821;44.800;10.326;2022-12-18T10:26:11;58.30;;;28.55;;
32347;SDS011;18821;44.800;10.326;2022-12-18T10:28:30;60.22;;;28.98;;
32347;SDS011;18821;44.800;10.326;2022-12-18T10:30:57;58.88;;;29.40;;
32347;SDS011;18821;44.800;10.326;2022-12-18T10:33:24;58.72;;;28.58;;
32347;SDS011;18821;44.800;10.326;2022-12-18T10:35:54;66.40;;;30.85;;
32347;SDS011;18821;44.800;10.326;2022-12-18T10:38:22;63.70;;;30.63;;
32347;SDS011;18821;44.800;10.326;2022-12-18T10:44:11;60.75;;;29.02;;
32347;SDS011;18821;44.800;10.326;2022-12-18T10:46:49;58.22;;;28.60;;
32347;SDS011;18821;44.800;10.326;2022-12-18T10:49:19;54.88;;;26.38;;
32347;SDS011;18821;44.800;10.326;2022-12-18T10:54:51;54.38;;;27.23;;
32347;SDS011;18821;44.800;10.326;2022-12-18T10:57:37;60.05;;;28.83;;
32347;SDS011;18821;44.800;10.326;2022-12-18T11:00:26;47.75;;;26.73;;
32347;SDS011;18821;44.800;10.326;2022-12-18T11:02:55;50.38;;;26.02;;
32347;SDS011;18821;44.800;10.326;2022-12-18T11:07:58;58.13;;;28.67;;
32347;SDS011;18821;44.800;10.326;2022-12-18T11:10:32;61.95;;;28.50;;
32347;SDS011;18821;44.800;10.326;2022-12-18T11:13:19;59.30;;;29.30;;
32347;SDS011;18821;44.800;10.326;2022-12-18T11:15:48;57.83;;;29.02;;
32347;SDS011;18821;44.800;10.326;2022-12-18T11:18:18;59.65;;;28.38;;
32347;SDS011;18821;44.800;10.326;2022-12-18T11:20:59;63.15;;;30.45;;
32347;SDS011;18821;44.800;10.326;2022-12-18T11:23:34;60.08;;;28.65;;
32347;SDS011;18821;44.800;10.326;2022-12-18T11:26:03;57.58;;;28.17;;
32347;SDS011;18821;44.800;10.326;2022-12-18T11:28:38;63.53;;;29.42;;
32347;SDS011;18821;44.800;10.326;2022-12-18T11:31:09;57.22;;;27.60;;
32347;SDS011;18821;44.800;10.326;2022-12-18T11:33:41;59.30;;;28.98;;
32347;SDS011;18821;44.800;10.326;2022-12-18T11:36:11;57.72;;;28.33;;
32347;SDS011;18821;44.800;10.326;2022-12-18T11:38:39;60.22;;;28.35;;
32347;SDS011;18821;44.800;10.326;2022-12-18T11:41:16;52.03;;;26.45;;
32347;SDS011;18821;44.800;10.326;2022-12-18T11:44:31;61.30;;;27.52;;
32347;SDS011;18821;44.800;10.326;2022-12-18T11:47:13;49.70;;;26.27;;
32347;SDS011;18821;44.800;10.326;2022-12-18T11:49:50;52.25;;;25.05;;
32347;SDS011;18821;44.800;10.326;2022-12-18T11:52:25;50.05;;;25.33;;
32347;SDS011;18821;44.800;10.326;2022-12-18T12:00:49;47.55;;;25.75;;
32347;SDS011;18821;44.800;10.326;2022-12-18T12:03:39;50.40;;;25.60;;
32347;SDS011;18821;44.800;10.326;2022-12-18T12:17:17;54.08;;;26.27;;
32347;SDS011;18821;44.800;10.326;2022-12-18T12:20:06;53.38;;;26.85;;
32347;SDS011;18821;44.800;10.326;2022-12-18T12:39:48;51.50;;;26.25;;
32347;SDS011;18821;44.800;10.326;2022-12-18T12:42:20;57.22;;;26.55;;
32347;SDS011;18821;44.800;10.326;2022-12-18T12:45:40;49.72;;;24.48;;
32347;SDS011;18821;44.800;10.326;2022-12-18T12:51:01;51.43;;;25.97;;
32347;SDS011;18821;44.800;10.326;2022-12-18T12:53:34;47.58;;;25.25;;
32347;SDS011;18821;44.800;10.326;2022-12-18T12:56:03;55.03;;;26.10;;
32347;SDS011;18821;44.800;10.326;2022-12-18T13:01:28;49.40;;;24.67;;
32347;SDS011;18821;44.800;10.326;2022-12-18T13:09:29;48.13;;;25.50;;
32347;SDS011;18821;44.800;10.326;2022-12-18T13:11:57;50.10;;;28.30;;
32347;SDS011;18821;44.800;10.326;2022-12-18T13:14:53;50.40;;;26.17;;
32347;SDS011;18821;44.800;10.326;2022-12-18T13:17:36;53.63;;;28.92;;
32347;SDS011;18821;44.800;10.326;2022-12-18T13:22:31;45.70;;;25.02;;
32347;SDS011;18821;44.800;10.326;2022-12-18T13:28:16;50.53;;;28.27;;
32347;SDS011;18821;44.800;10.326;2022-12-18T13:30:56;56.20;;;28.38;;
32347;SDS011;18821;44.800;10.326;2022-12-18T13:39:08;53.20;;;25.95;;
32347;SDS011;18821;44.800;10.326;2022-12-18T13:41:34;47.15;;;26.25;;
32347;SDS011;18821;44.800;10.326;2022-12-18T13:44:13;48.78;;;27.98;;
32347;SDS011;18821;44.800;10.326;2022-12-18T13:47:01;45.85;;;25.02;;
32347;SDS011;18821;44.800;10.326;2022-12-18T13:49:38;46.03;;;25.42;;
32347;SDS011;18821;44.800;10.326;2022-12-18T13:52:16;49.40;;;24.48;;
32347;SDS011;18821;44.800;10.326;2022-12-18T13:54:50;53.03;;;26.17;;
32347;SDS011;18821;44.800;10.326;2022-12-18T13:57:28;48.55;;;26.48;;
32347;SDS011;18821;44.800;10.326;2022-12-18T14:02:45;51.88;;;27.48;;
32347;SDS011;18821;44.800;10.326;2022-12-18T14:05:21;57.25;;;27.85;;
32347;SDS011;18821;44.800;10.326;2022-12-18T14:07:47;54.35;;;27.05;;
32347;SDS011;18821;44.800;10.326;2022-12-18T14:10:14;51.33;;;27.45;;
32347;SDS011;18821;44.800;10.326;2022-12-18T14:12:45;51.00;;;28.15;;
32347;SDS011;18821;44.800;10.326;2022-12-18T14:18:33;52.08;;;29.42;;
32347;SDS011;18821;44.800;10.326;2022-12-18T14:20:43;58.88;;;28.10;;
32347;SDS011;18821;44.800;10.326;2022-12-18T14:28:52;57.28;;;29.02;;
32347;SDS011;18821;44.800;10.326;2022-12-18T14:31:23;49.47;;;27.10;;
32347;SDS011;18821;44.800;10.326;2022-12-18T14:33:51;56.60;;;28.15;;
32347;SDS011;18821;44.800;10.326;2022-12-18T14:36:19;55.00;;;27.73;;
32347;SDS011;18821;44.800;10.326;2022-12-18T14:38:48;55.47;;;28.50;;
32347;SDS011;18821;44.800;10.326;2022-12-18T14:41:19;55.35;;;28.05;;
32347;SDS011;18821;44.800;10.326;2022-12-18T14:43:47;54.72;;;27.35;;
32347;SDS011;18821;44.800;10.326;2022-12-18T14:46:29;54.00;;;29.20;;
32347;SDS011;18821;44.800;10.326;2022-12-18T14:49:03;54.08;;;28.80;;
32347;SDS011;18821;44.800;10.326;2022-12-18T14:51:47;53.80;;;29.48;;
32347;SDS011;18821;44.800;10.326;2022-12-18T14:54:15;56.83;;;29.58;;
32347;SDS011;18821;44.800;10.326;2022-12-18T14:56:47;57.45;;;29.75;;
32347;SDS011;18821;44.800;10.326;2022-12-18T14:59:20;50.30;;;28.63;;
32347;SDS011;18821;44.800;10.326;2022-12-18T15:04:39;58.83;;;30.58;;
32347;SDS011;18821;44.800;10.326;2022-12-18T15:09:35;61.03;;;32.50;;
32347;SDS011;18821;44.800;10.326;2022-12-18T15:12:02;63.35;;;33.88;;
32347;SDS011;18821;44.800;10.326;2022-12-18T15:14:30;62.75;;;32.92;;
32347;SDS011;18821;44.800;10.326;2022-12-18T15:17:05;61.33;;;30.58;;
32347;SDS011;18821;44.800;10.326;2022-12-18T15:19:42;59.35;;;31.60;;
32347;SDS011;18821;44.800;10.326;2022-12-18T15:22:16;64.20;;;31.75;;
32347;SDS011;18821;44.800;10.326;2022-12-18T15:24:43;63.90;;;32.83;;
32347;SDS011;18821;44.800;10.326;2022-12-18T15:32:36;65.13;;;33.55;;
32347;SDS011;18821;44.800;10.326;2022-12-18T15:37:38;68.90;;;33.70;;
32347;SDS011;18821;44.800;10.326;2022-12-18T15:40:04;69.85;;;33.88;;
32347;SDS011;18821;44.800;10.326;2022-12-18T15:42:31;68.50;;;36.28;;
32347;SDS011;18821;44.800;10.326;2022-12-18T15:45:15;78.25;;;37.42;;
32347;SDS011;18821;44.800;10.326;2022-12-18T15:47:41;74.00;;;36.67;;
32347;SDS011;18821;44.800;10.326;2022-12-18T15:50:08;73.28;;;37.53;;
32347;SDS011;18821;44.800;10.326;2022-12-18T15:52:44;75.68;;;37.90;;
32347;SDS011;18821;44.800;10.326;2022-12-18T15:55:12;81.90;;;38.90;;
32347;SDS011;18821;44.800;10.326;2022-12-18T15:57:58;71.43;;;35.50;;
32347;SDS011;18821;44.800;10.326;2022-12-18T16:00:24;76.28;;;37.25;;
32347;SDS011;18821;44.800;10.326;2022-12-18T16:02:50;69.15;;;34.75;;
32347;SDS011;18821;44.800;10.326;2022-12-18T16:05:17;79.10;;;38.40;;
32347;SDS011;18821;44.800;10.326;2022-12-18T16:07:44;71.28;;;34.33;;
32347;SDS011;18821;44.800;10.326;2022-12-18T16:10:10;76.07;;;36.08;;
32347;SDS011;18821;44.800;10.326;2022-12-18T16:12:37;71.07;;;35.80;;
32347;SDS011;18821;44.800;10.326;2022-12-18T16:15:03;77.68;;;37.20;;
32347;SDS011;18821;44.800;10.326;2022-12-18T16:17:30;73.97;;;35.63;;
32347;SDS011;18821;44.800;10.326;2022-12-18T16:19:57;76.93;;;35.47;;
32347;SDS011;18821;44.800;10.326;2022-12-18T16:22:23;78.97;;;38.08;;
32347;SDS011;18821;44.800;10.326;2022-12-18T16:24:54;84.13;;;38.60;;
32347;SDS011;18821;44.800;10.326;2022-12-18T16:27:21;84.90;;;37.38;;
32347;SDS011;18821;44.800;10.326;2022-12-18T16:29:48;80.32;;;37.70;;
32347;SDS011;18821;44.800;10.326;2022-12-18T16:32:15;81.10;;;35.20;;